Time;durP1;ratioP1;P1;durP2;ratioP2;P2;SDS_P1;SDS_P2;PMS_P1;PMS_P2;Temp;Humidity;BMP_temperature;BMP_pressure;BME280_temperature;BME280_humidity;BME280_pressure;Samples;Min_cycle;Max_cycle;Signal;HPM_P1;HPM_P2
2020/12/27 00:02:16;;;;;;;8.77;6.45;;;-0.80;99.90;;;;;;4936372;29;20282;-47
2020/12/27 00:04:43;;;;;;;11.00;7.97;;;-0.80;99.90;;;;;;4936478;29;20307;-47
2020/12/27 00:07:13;;;;;;;9.10;7.93;;;-0.90;99.90;;;;;;4936402;29;20212;-43
2020/12/27 00:09:42;;;;;;;10.37;7.47;;;-1.00;99.90;;;;;;4936242;29;20212;-44
2020/12/27 00:12:10;;;;;;;8.00;6.33;;;-1.00;99.90;;;;;;4936181;29;20311;-45
2020/12/27 00:14:37;;;;;;;6.43;5.73;;;-1.00;99.90;;;;;;4936047;29;20556;-45
2020/12/27 00:17:05;;;;;;;8.17;6.87;;;-1.10;99.90;;;;;;4936425;29;20216;-46
2020/12/27 00:19:33;;;;;;;8.83;6.43;;;-1.10;99.90;;;;;;4936056;29;20310;-44
2020/12/27 00:22:01;;;;;;;7.93;6.40;;;-1.10;99.90;;;;;;4936137;29;20461;-45
2020/12/27 00:24:28;;;;;;;7.97;6.33;;;-1.10;99.90;;;;;;4936350;29;20299;-45
2020/12/27 00:26:56;;;;;;;7.77;5.90;;;-1.10;99.90;;;;;;4936332;29;20216;-43
2020/12/27 00:29:23;;;;;;;14.93;10.80;;;-1.10;99.90;;;;;;4935917;29;20252;-46
2020/12/27 00:31:52;;;;;;;13.33;11.00;;;-1.10;99.90;;;;;;4935879;29;20239;-44
2020/12/27 00:34:20;;;;;;;8.77;7.27;;;-1.10;99.90;;;;;;4935944;29;20314;-42
2020/12/27 00:36:48;;;;;;;9.77;7.43;;;-1.10;99.90;;;;;;4935654;29;20216;-42
2020/12/27 00:39:21;;;;;;;7.33;5.50;;;-1.10;99.90;;;;;;4936175;29;20212;-45
2020/12/27 00:41:48;;;;;;;6.97;6.00;;;-1.00;99.90;;;;;;4935830;29;20663;-43
2020/12/27 00:44:16;;;;;;;6.93;5.80;;;-1.00;99.90;;;;;;4935800;29;20307;-43
2020/12/27 00:46:49;;;;;;;7.77;6.63;;;-0.90;99.90;;;;;;4935376;29;20208;-43
2020/12/27 00:49:17;;;;;;;8.63;6.40;;;-1.00;99.90;;;;;;4935609;29;20212;-43
2020/12/27 00:51:44;;;;;;;7.77;5.53;;;-0.90;99.90;;;;;;4935531;29;20326;-41
2020/12/27 00:54:13;;;;;;;10.73;7.33;;;-0.90;99.90;;;;;;4935775;29;20208;-42
2020/12/27 00:56:40;;;;;;;7.17;5.73;;;-0.90;99.90;;;;;;4935661;29;20212;-42
2020/12/27 00:59:07;;;;;;;7.80;6.17;;;-0.90;99.90;;;;;;4935361;29;20310;-43
2020/12/27 01:01:35;;;;;;;9.47;6.07;;;-0.90;99.90;;;;;;4935367;29;20255;-43
2020/12/27 01:04:02;;;;;;;9.97;7.00;;;-0.80;99.90;;;;;;4935607;29;20291;-45
2020/12/27 01:06:29;;;;;;;6.80;6.10;;;-0.80;99.90;;;;;;4935540;29;20250;-43
2020/12/27 01:08:56;;;;;;;10.77;8.00;;;-0.80;99.90;;;;;;4935298;29;20219;-43
2020/12/27 01:11:24;;;;;;;7.53;6.00;;;-0.70;99.90;;;;;;4935184;29;20664;-46
2020/12/27 01:13:51;;;;;;;11.27;6.60;;;-0.70;99.90;;;;;;4935134;29;20239;-42
2020/12/27 01:16:19;;;;;;;8.40;6.87;;;-0.60;99.90;;;;;;4935213;29;20294;-45
2020/12/27 01:18:47;;;;;;;10.87;7.10;;;-0.60;99.90;;;;;;4935181;29;20689;-45
2020/12/27 01:21:22;;;;;;;11.77;8.13;;;-0.60;99.90;;;;;;4935319;29;20204;-46
2020/12/27 01:23:49;;;;;;;12.93;7.50;;;-0.70;99.90;;;;;;4935519;29;20254;-45
2020/12/27 01:26:16;;;;;;;7.40;5.97;;;-0.80;99.90;;;;;;4935293;29;20266;-46
2020/12/27 01:28:44;;;;;;;11.00;6.67;;;-0.80;99.90;;;;;;4935066;29;20247;-46
2020/12/27 01:31:20;;;;;;;10.73;6.67;;;-0.90;99.90;;;;;;4935228;29;20235;-45
2020/12/27 01:33:47;;;;;;;9.80;6.60;;;-1.00;99.90;;;;;;4935054;29;20252;-46
2020/12/27 01:36:14;;;;;;;8.73;5.87;;;-1.00;99.90;;;;;;4927667;29;20263;-46
2020/12/27 01:38:41;;;;;;;7.90;6.10;;;-1.00;99.90;;;;;;4934884;29;20240;-44
2020/12/27 01:41:09;;;;;;;11.63;7.57;;;-0.90;99.90;;;;;;4934937;29;20227;-43
2020/12/27 01:43:36;;;;;;;10.60;6.80;;;-0.90;99.90;;;;;;4934949;29;20738;-46
2020/12/27 01:46:04;;;;;;;7.20;5.57;;;-0.90;99.90;;;;;;4934915;29;20295;-43
2020/12/27 01:48:31;;;;;;;7.23;5.20;;;-1.00;99.90;;;;;;4935081;29;20214;-45
2020/12/27 01:50:59;;;;;;;7.83;6.70;;;-1.00;99.90;;;;;;4934921;29;20262;-44
2020/12/27 01:53:26;;;;;;;9.10;5.83;;;-0.90;99.90;;;;;;4934923;29;20298;-46
2020/12/27 01:55:55;;;;;;;10.10;5.77;;;-0.90;99.90;;;;;;4934813;29;20218;-45
2020/12/27 01:58:25;;;;;;;6.70;5.23;;;-0.90;99.90;;;;;;4935783;29;20218;-46
2020/12/27 02:00:53;;;;;;;5.30;4.80;;;-1.00;99.90;;;;;;4938972;29;20314;-47
2020/12/27 02:03:21;;;;;;;5.67;4.90;;;-1.10;99.90;;;;;;4938649;29;20557;-45
2020/12/27 02:05:51;;;;;;;5.20;4.70;;;-1.10;99.90;;;;;;4938716;29;20223;-42
2020/12/27 02:08:19;;;;;;;7.30;5.40;;;-1.20;99.90;;;;;;4938624;29;20612;-43
2020/12/27 02:10:49;;;;;;;6.53;5.00;;;-1.10;99.90;;;;;;4938421;29;20793;-45
2020/12/27 02:13:17;;;;;;;7.23;5.70;;;-1.10;99.90;;;;;;4938574;29;20259;-44
2020/12/27 02:15:44;;;;;;;9.43;5.70;;;-1.10;99.90;;;;;;4938547;29;20223;-44
2020/12/27 02:18:11;;;;;;;5.37;4.87;;;-1.10;99.90;;;;;;4938505;29;20208;-45
2020/12/27 02:20:38;;;;;;;5.63;4.63;;;-1.20;99.90;;;;;;4938366;29;20208;-46
2020/12/27 02:23:10;;;;;;;6.10;5.17;;;-1.10;99.90;;;;;;4938218;29;20215;-47
2020/12/27 02:25:38;;;;;;;5.80;4.93;;;-1.20;99.90;;;;;;4938270;29;20232;-45
2020/12/27 02:28:05;;;;;;;4.80;4.40;;;-1.20;99.90;;;;;;4938426;29;20306;-45
2020/12/27 02:30:32;;;;;;;7.33;4.70;;;-1.30;99.90;;;;;;4938149;29;20664;-43
2020/12/27 02:32:59;;;;;;;6.03;4.70;;;-1.30;99.90;;;;;;4938272;29;20306;-43
2020/12/27 02:35:26;;;;;;;5.27;4.37;;;-1.30;99.90;;;;;;4937973;29;20208;-43
2020/12/27 02:37:53;;;;;;;6.20;5.20;;;-1.40;99.90;;;;;;4937915;29;20774;-44
2020/12/27 02:40:20;;;;;;;6.67;5.23;;;-1.40;99.90;;;;;;4937965;29;20661;-44
2020/12/27 02:42:48;;;;;;;7.03;5.50;;;-1.40;99.90;;;;;;4938166;29;20212;-46
2020/12/27 02:45:16;;;;;;;5.13;4.50;;;-1.40;99.90;;;;;;4937835;29;20220;-42
2020/12/27 02:47:44;;;;;;;6.93;4.67;;;-1.40;99.90;;;;;;4937869;29;20228;-43
2020/12/27 02:50:13;;;;;;;5.07;4.57;;;;;;;;;;4937686;29;20677;-43
2020/12/27 02:52:40;;;;;;;5.30;4.20;;;-1.50;99.90;;;;;;4937997;29;20302;-43
2020/12/27 02:55:08;;;;;;;6.47;4.77;;;-1.50;99.90;;;;;;4937811;29;20330;-43
2020/12/27 02:57:35;;;;;;;6.00;4.47;;;-1.50;99.90;;;;;;4937737;29;20661;-43
2020/12/27 03:00:06;;;;;;;5.83;4.70;;;-1.60;99.90;;;;;;4937634;29;20712;-46
2020/12/27 03:02:33;;;;;;;6.37;4.97;;;-1.60;99.90;;;;;;4937636;29;20222;-45
2020/12/27 03:05:00;;;;;;;6.27;4.70;;;-1.70;99.90;;;;;;4937490;29;20212;-46
2020/12/27 03:07:27;;;;;;;5.30;4.80;;;-1.70;99.90;;;;;;4937712;29;20259;-47
2020/12/27 03:09:54;;;;;;;4.97;4.47;;;-1.60;99.90;;;;;;4937278;29;20679;-46
2020/12/27 03:12:22;;;;;;;4.67;4.27;;;-1.70;99.90;;;;;;4937270;29;20231;-45
2020/12/27 03:14:49;;;;;;;6.37;4.73;;;-1.60;99.90;;;;;;4937286;29;20278;-44
2020/12/27 03:17:17;;;;;;;6.20;4.53;;;-1.60;99.90;;;;;;4937368;29;20212;-46
2020/12/27 03:19:44;;;;;;;5.23;4.30;;;-1.70;99.90;;;;;;4937553;29;20306;-45
2020/12/27 03:22:11;;;;;;;6.63;4.77;;;-1.70;99.90;;;;;;4937403;29;20212;-47
2020/12/27 03:24:38;;;;;;;4.60;4.17;;;-1.70;99.90;;;;;;4937309;29;20304;-45
2020/12/27 03:27:05;;;;;;;4.83;4.20;;;-1.70;99.90;;;;;;4937205;29;20722;-52
2020/12/27 03:29:32;;;;;;;4.83;4.07;;;-1.60;99.90;;;;;;4937081;29;20306;-51
2020/12/27 03:31:59;;;;;;;5.17;4.67;;;-1.50;99.90;;;;;;4936953;29;20327;-46
2020/12/27 03:34:27;;;;;;;5.10;4.60;;;-1.50;99.90;;;;;;4937129;29;20302;-44
2020/12/27 03:36:54;;;;;;;6.00;4.73;;;-1.50;99.90;;;;;;4937092;29;20294;-48
2020/12/27 03:39:21;;;;;;;6.93;4.60;;;-1.50;99.90;;;;;;4936920;29;20212;-46
2020/12/27 03:41:48;;;;;;;6.63;4.23;;;-1.50;99.90;;;;;;4936929;29;20207;-47
2020/12/27 03:44:15;;;;;;;5.47;4.50;;;-1.50;99.90;;;;;;4936725;29;20212;-46
2020/12/27 03:46:42;;;;;;;6.43;4.50;;;-1.40;99.90;;;;;;4937146;29;20214;-46
2020/12/27 03:49:09;;;;;;;5.80;4.20;;;-1.40;99.90;;;;;;4936712;29;20675;-47
2020/12/27 03:51:37;;;;;;;5.23;4.43;;;-1.50;99.90;;;;;;4936508;29;20290;-45
2020/12/27 03:54:04;;;;;;;5.93;4.67;;;-1.50;99.90;;;;;;4936823;29;20294;-44
2020/12/27 03:56:31;;;;;;;6.33;4.40;;;-1.50;99.90;;;;;;4919888;29;20248;-45
2020/12/27 03:58:58;;;;;;;4.50;4.00;;;-1.50;99.90;;;;;;4936545;29;20287;-42
2020/12/27 04:01:25;;;;;;;5.07;4.43;;;-1.50;99.90;;;;;;4936456;29;20623;-42
2020/12/27 04:03:52;;;;;;;4.87;4.37;;;-1.50;99.90;;;;;;4936481;29;20722;-42
2020/12/27 04:06:19;;;;;;;5.30;4.53;;;-1.60;99.90;;;;;;4936327;29;20218;-42
2020/12/27 04:08:47;;;;;;;5.17;4.00;;;-1.70;99.90;;;;;;4936261;29;20212;-41
2020/12/27 04:11:14;;;;;;;4.33;3.93;;;-1.60;99.90;;;;;;4936195;29;20264;-41
2020/12/27 04:13:41;;;;;;;3.60;3.30;;;-1.70;99.90;;;;;;4935987;29;20286;-42
2020/12/27 04:16:08;;;;;;;4.00;3.60;;;-1.70;99.90;;;;;;4936456;29;20242;-41
2020/12/27 04:18:35;;;;;;;4.07;3.50;;;-1.80;99.90;;;;;;4936302;29;20306;-41
2020/12/27 04:21:02;;;;;;;4.73;3.77;;;-1.80;99.90;;;;;;4935595;29;20295;-41
2020/12/27 04:23:29;;;;;;;4.47;4.07;;;-1.80;99.90;;;;;;4936218;29;20254;-41
2020/12/27 04:25:57;;;;;;;4.87;3.73;;;-1.80;99.90;;;;;;4935860;29;20212;-46
2020/12/27 04:28:24;;;;;;;5.03;4.23;;;-1.70;99.90;;;;;;4936243;29;20231;-44
2020/12/27 04:30:51;;;;;;;4.13;3.73;;;-1.70;99.90;;;;;;4936007;29;20232;-43
2020/12/27 04:33:18;;;;;;;6.73;4.07;;;-1.70;99.90;;;;;;4935909;29;20216;-42
2020/12/27 04:35:45;;;;;;;5.23;4.13;;;-1.70;99.90;;;;;;4935897;29;20274;-41
2020/12/27 04:38:12;;;;;;;5.80;4.30;;;-1.60;99.90;;;;;;4928007;29;20248;-42
2020/12/27 04:40:42;;;;;;;5.50;4.27;;;-1.70;99.90;;;;;;4935482;29;20222;-42
2020/12/27 04:43:10;;;;;;;4.47;4.03;;;-1.70;99.90;;;;;;4935654;29;20627;-42
2020/12/27 04:45:37;;;;;;;5.23;4.27;;;-1.70;99.90;;;;;;4935437;29;20222;-44
2020/12/27 04:48:04;;;;;;;5.97;3.73;;;-1.70;99.90;;;;;;4935411;29;20251;-42
2020/12/27 04:50:32;;;;;;;5.20;4.03;;;-1.60;99.90;;;;;;4935020;29;20307;-42
2020/12/27 04:53:00;;;;;;;4.27;3.67;;;-1.60;99.90;;;;;;4935377;29;20235;-42
2020/12/27 04:55:27;;;;;;;6.70;4.17;;;-1.60;99.90;;;;;;4935665;29;20308;-43
2020/12/27 04:57:57;;;;;;;5.27;4.20;;;-1.60;99.90;;;;;;4935654;29;20304;-42
2020/12/27 05:00:25;;;;;;;3.80;3.43;;;-1.50;99.90;;;;;;4935571;29;20240;-43
2020/12/27 05:02:51;;;;;;;4.00;3.60;;;-1.60;99.90;;;;;;4935474;29;20298;-43
2020/12/27 05:05:18;;;;;;;4.97;3.10;;;-1.60;99.90;;;;;;4935281;29;20738;-42
2020/12/27 05:07:45;;;;;;;4.07;3.67;;;-1.60;99.90;;;;;;4935526;29;20295;-42
2020/12/27 05:10:13;;;;;;;3.80;3.40;;;-1.50;99.90;;;;;;4935280;29;20496;-42
2020/12/27 05:12:40;;;;;;;5.07;3.37;;;-1.60;99.90;;;;;;4935018;29;20267;-42
2020/12/27 05:15:07;;;;;;;5.97;4.03;;;-1.70;99.90;;;;;;4935160;29;20254;-42
2020/12/27 05:17:36;;;;;;;5.10;3.63;;;-1.70;99.90;;;;;;4935144;29;20242;-43
2020/12/27 05:20:08;;;;;;;8.73;6.20;;;-1.70;99.90;;;;;;4935143;29;20673;-43
2020/12/27 05:22:37;;;;;;;5.90;4.13;;;-1.70;99.90;;;;;;4935311;29;20298;-43
2020/12/27 05:25:05;;;;;;;4.50;4.10;;;-1.70;99.90;;;;;;4935095;29;20259;-44
2020/12/27 05:27:39;;;;;;;3.93;3.53;;;-1.80;99.90;;;;;;4934786;29;20216;-42
2020/12/27 05:30:06;;;;;;;5.83;5.07;;;-1.70;99.90;;;;;;4917734;29;20675;-42
2020/12/27 05:32:34;;;;;;;3.63;3.13;;;-1.80;99.90;;;;;;4934160;29;20236;-41
2020/12/27 05:35:09;;;;;;;4.00;3.50;;;-1.80;99.90;;;;;;4934856;29;20299;-42
2020/12/27 05:37:38;;;;;;;4.17;3.53;;;-1.90;99.90;;;;;;4935125;29;20218;-42
2020/12/27 05:40:06;;;;;;;4.00;3.60;;;-2.00;99.90;;;;;;4935100;29;20444;-43
2020/12/27 05:42:35;;;;;;;6.07;4.07;;;-2.00;99.90;;;;;;4934236;29;20208;-43
2020/12/27 05:45:12;;;;;;;6.43;4.23;;;-2.00;99.90;;;;;;4934803;29;20243;-43
2020/12/27 05:47:48;;;;;;;3.50;3.20;;;-2.10;99.90;;;;;;4934920;29;20264;-43
2020/12/27 05:50:16;;;;;;;3.50;3.20;;;-2.10;99.90;;;;;;4934717;29;20707;-42
2020/12/27 05:52:45;;;;;;;3.43;3.00;;;-2.20;99.90;;;;;;4934860;29;20300;-42
2020/12/27 05:55:18;;;;;;;5.00;3.57;;;-2.20;99.90;;;;;;4934678;29;20251;-43
2020/12/27 05:57:50;;;;;;;3.83;3.23;;;-2.20;99.90;;;;;;4934883;29;20644;-42
2020/12/27 06:00:19;;;;;;;3.57;3.23;;;-2.20;99.90;;;;;;4934701;29;20710;-42
2020/12/27 06:02:56;;;;;;;3.47;3.07;;;-2.20;99.90;;;;;;4934709;29;20267;-42
2020/12/27 06:05:48;;;;;;;3.50;3.20;;;-2.10;99.90;;;;;;4934677;29;20215;-43
2020/12/27 06:09:00;;;;;;;3.90;3.47;;;-2.10;99.90;;;;;;4934841;29;20212;-44
2020/12/27 06:11:37;;;;;;;6.07;3.83;;;-2.10;99.90;;;;;;4924838;29;20318;-43
2020/12/27 06:14:39;;;;;;;4.20;3.80;;;-2.10;99.90;;;;;;4934314;29;20239;-42
2020/12/27 06:17:12;;;;;;;5.63;4.10;;;-2.10;99.90;;;;;;4934402;29;20302;-42
2020/12/27 06:19:56;;;;;;;6.27;4.40;;;-2.00;99.90;;;;;;4934741;29;20747;-42
2020/12/27 06:22:28;;;;;;;3.93;3.50;;;-2.00;99.90;;;;;;4934453;29;20324;-43
2020/12/27 06:24:58;;;;;;;4.77;4.13;;;-2.00;99.90;;;;;;4934246;29;20322;-42
2020/12/27 06:27:29;;;;;;;4.43;4.03;;;-2.00;99.90;;;;;;4934557;29;20658;-42
2020/12/27 06:30:06;;;;;;;7.33;4.97;;;-2.10;99.90;;;;;;4934652;29;20240;-42
2020/12/27 06:32:39;;;;;;;10.70;6.50;;;-2.10;99.90;;;;;;4934215;29;20236;-43
2020/12/27 06:35:09;;;;;;;9.50;6.10;;;-2.20;99.90;;;;;;4934226;29;20235;-42
2020/12/27 06:37:44;;;;;;;4.13;3.73;;;-2.10;99.90;;;;;;4934140;29;20643;-42
2020/12/27 06:40:13;;;;;;;35.43;16.80;;;-2.20;99.90;;;;;;4934244;29;20671;-42
2020/12/27 06:42:40;;;;;;;8.17;6.13;;;-2.20;99.90;;;;;;4934463;29;20220;-42
2020/12/27 06:45:26;;;;;;;6.33;4.77;;;-2.20;99.90;;;;;;4936139;29;20222;-42
2020/12/27 06:47:55;;;;;;;7.20;5.10;;;-2.30;99.90;;;;;;4938249;29;20243;-43
2020/12/27 06:50:24;;;;;;;4.57;3.97;;;-2.30;99.90;;;;;;4937218;29;20667;-44
2020/12/27 06:52:52;;;;;;;13.53;8.50;;;-2.20;99.90;;;;;;4937870;29;20238;-42
2020/12/27 06:55:36;;;;;;;8.10;5.03;;;-2.20;99.90;;;;;;4937623;29;20299;-43
2020/12/27 06:58:19;;;;;;;20.57;10.27;;;-2.20;99.90;;;;;;4937499;29;20303;-42
2020/12/27 07:00:47;;;;;;;16.07;10.00;;;-2.20;99.90;;;;;;4937361;29;20755;-42
2020/12/27 07:03:18;;;;;;;26.33;15.67;;;-2.20;99.90;;;;;;4937675;29;20659;-42
2020/12/27 07:05:47;;;;;;;5.17;4.50;;;-2.20;99.90;;;;;;4937626;29;20311;-42
2020/12/27 07:08:15;;;;;;;9.60;6.57;;;-2.20;99.90;;;;;;4937446;29;20277;-43
2020/12/27 07:10:44;;;;;;;6.30;4.20;;;-2.20;99.90;;;;;;4937099;29;20643;-42
2020/12/27 07:13:12;;;;;;;7.27;5.80;;;-2.10;99.90;;;;;;4937126;29;20240;-42
2020/12/27 07:15:48;;;;;;;6.43;4.43;;;-2.10;99.90;;;;;;4937285;29;20658;-42
2020/12/27 07:18:21;;;;;;;5.53;4.53;;;-2.00;99.90;;;;;;4937302;29;20255;-42
2020/12/27 07:20:53;;;;;;;7.80;4.43;;;-1.90;99.90;;;;;;4937132;29;20307;-42
2020/12/27 07:23:23;;;;;;;5.23;3.90;;;-1.90;99.90;;;;;;4937411;29;20296;-42
2020/12/27 07:25:52;;;;;;;4.87;4.23;;;-1.80;99.90;;;;;;4937208;29;20216;-42
2020/12/27 07:28:21;;;;;;;5.47;4.17;;;-1.80;99.90;;;;;;4937061;29;20239;-42
2020/12/27 07:30:48;;;;;;;4.90;4.00;;;-1.70;99.90;;;;;;4936843;29;20635;-42
2020/12/27 07:33:16;;;;;;;5.77;4.30;;;-1.70;99.90;;;;;;4936921;29;20255;-42
2020/12/27 07:35:43;;;;;;;5.37;4.40;;;-1.60;99.90;;;;;;4937242;29;20303;-43
2020/12/27 07:38:11;;;;;;;3.83;3.53;;;-1.50;99.90;;;;;;4936945;29;20299;-43
2020/12/27 07:40:38;;;;;;;5.07;4.03;;;-1.40;99.90;;;;;;4936855;29;20302;-42
2020/12/27 07:43:09;;;;;;;5.40;3.83;;;-1.30;99.90;;;;;;4936779;29;20320;-42
2020/12/27 07:45:37;;;;;;;6.53;4.00;;;-1.20;99.90;;;;;;4936613;29;20212;-42
2020/12/27 07:48:04;;;;;;;4.20;3.80;;;-1.20;99.90;;;;;;4936479;29;20252;-42
2020/12/27 07:50:32;;;;;;;4.03;3.50;;;-1.10;99.90;;;;;;4936565;29;20212;-43
2020/12/27 07:53:00;;;;;;;5.37;3.70;;;-1.10;99.90;;;;;;4936607;29;20272;-42
2020/12/27 07:55:30;;;;;;;4.70;3.80;;;-1.00;99.90;;;;;;4936073;29;20243;-42
2020/12/27 07:57:59;;;;;;;4.47;3.47;;;-0.90;99.90;;;;;;4936223;29;20264;-42
2020/12/27 08:00:28;;;;;;;3.80;3.50;;;-0.90;99.90;;;;;;4936147;29;20212;-42
2020/12/27 08:02:56;;;;;;;5.67;4.20;;;-0.80;99.90;;;;;;4936381;29;20208;-42
2020/12/27 08:05:23;;;;;;;6.30;3.77;;;-0.70;99.90;;;;;;4936283;29;20307;-43
2020/12/27 08:07:54;;;;;;;4.43;4.03;;;-0.70;99.90;;;;;;4936135;29;20283;-43
2020/12/27 08:10:26;;;;;;;4.93;4.43;;;-0.80;99.90;;;;;;4936504;29;20215;-43
2020/12/27 08:12:56;;;;;;;3.50;3.20;;;-0.80;99.90;;;;;;4936287;29;20235;-44
2020/12/27 08:15:24;;;;;;;5.13;4.03;;;-0.80;99.90;;;;;;4936425;29;20208;-44
2020/12/27 08:18:02;;;;;;;6.33;4.53;;;-0.80;99.90;;;;;;4936129;29;20374;-45
2020/12/27 08:20:31;;;;;;;5.00;4.13;;;-0.70;99.90;;;;;;4936110;29;20216;-43
2020/12/27 08:23:03;;;;;;;5.70;4.80;;;-0.60;99.90;;;;;;4935979;29;20332;-43
2020/12/27 08:25:32;;;;;;;7.77;4.67;;;-0.50;99.90;;;;;;4936082;29;20302;-43
2020/12/27 08:28:03;;;;;;;7.00;5.13;;;-0.40;99.90;;;;;;4936234;29;20322;-44
2020/12/27 08:30:30;;;;;;;5.93;5.07;;;-0.40;99.90;;;;;;4936030;29;20616;-44
2020/12/27 08:33:08;;;;;;;6.47;5.40;;;-0.30;99.90;;;;;;4935840;29;20737;-45
2020/12/27 08:35:36;;;;;;;4.37;3.97;;;-0.10;99.90;;;;;;4935772;29;20220;-44
2020/12/27 08:38:31;;;;;;;4.03;3.63;;;0.00;99.90;;;;;;4935760;29;20303;-44
2020/12/27 08:41:16;;;;;;;5.73;4.40;;;0.10;99.90;;;;;;4923077;29;20247;-43
2020/12/27 08:44:10;;;;;;;4.43;4.00;;;0.30;99.90;;;;;;4935768;29;20645;-45
2020/12/27 08:46:40;;;;;;;4.83;4.30;;;0.40;99.90;;;;;;4935753;29;20218;-43
2020/12/27 08:49:12;;;;;;;4.57;3.30;;;0.50;99.90;;;;;;4935910;29;20596;-43
2020/12/27 08:51:51;;;;;;;4.27;3.77;;;0.50;99.90;;;;;;4935696;29;20257;-44
2020/12/27 08:54:19;;;;;;;4.33;3.83;;;0.50;99.90;;;;;;4935680;29;20594;-43
2020/12/27 08:56:46;;;;;;;3.87;3.50;;;0.50;99.90;;;;;;4935486;29;20212;-43
2020/12/27 08:59:15;;;;;;;4.17;3.63;;;0.50;99.90;;;;;;4935360;29;20207;-46
2020/12/27 09:01:42;;;;;;;5.73;4.80;;;0.50;99.80;;;;;;4934992;29;20645;-43
2020/12/27 09:04:18;;;;;;;8.13;6.17;;;0.60;99.80;;;;;;4935532;29;20216;-43
2020/12/27 09:06:55;;;;;;;6.57;4.43;;;0.80;99.70;;;;;;4935225;29;20675;-43
2020/12/27 09:09:23;;;;;;;5.20;4.50;;;1.00;99.40;;;;;;4935368;29;20207;-43
2020/12/27 09:11:50;;;;;;;8.37;4.90;;;1.10;99.20;;;;;;4935094;29;20733;-44
2020/12/27 09:14:34;;;;;;;18.30;8.23;;;1.30;98.90;;;;;;4935276;29;20326;-43
2020/12/27 09:17:03;;;;;;;13.00;7.07;;;1.40;98.60;;;;;;4935387;29;20644;-43
2020/12/27 09:19:33;;;;;;;8.67;6.00;;;1.40;98.70;;;;;;4935123;29;20564;-44
2020/12/27 09:22:03;;;;;;;15.07;7.57;;;1.50;98.40;;;;;;4935472;29;20291;-45
2020/12/27 09:24:30;;;;;;;11.60;7.33;;;1.60;98.30;;;;;;4935565;29;20218;-46
2020/12/27 09:27:08;;;;;;;11.30;6.83;;;1.60;99.20;;;;;;4935086;29;20300;-45
2020/12/27 09:29:36;;;;;;;5.73;4.50;;;1.70;98.00;;;;;;4935050;29;20690;-47
2020/12/27 09:32:11;;;;;;;5.40;4.70;;;1.70;97.90;;;;;;4934823;29;20259;-43
2020/12/27 09:34:38;;;;;;;7.83;6.07;;;1.60;97.80;;;;;;4934795;29;20427;-47
2020/12/27 09:37:15;;;;;;;5.87;4.80;;;1.60;97.90;;;;;;4935126;29;20218;-46
2020/12/27 09:39:43;;;;;;;7.27;4.67;;;1.70;97.80;;;;;;4934949;29;20294;-44
2020/12/27 09:42:24;;;;;;;4.40;4.00;;;1.70;97.80;;;;;;4934942;29;20360;-44
2020/12/27 09:44:52;;;;;;;7.10;5.77;;;1.80;97.60;;;;;;4934811;29;20262;-44
2020/12/27 09:47:24;;;;;;;9.37;8.17;;;1.90;97.50;;;;;;4934997;29;20237;-45
2020/12/27 09:50:02;;;;;;;5.50;4.10;;;1.90;97.40;;;;;;4934980;29;20218;-43
2020/12/27 09:52:29;;;;;;;4.23;3.67;;;2.00;97.20;;;;;;4934528;29;20765;-44
2020/12/27 09:54:56;;;;;;;5.93;4.80;;;2.00;97.20;;;;;;4934440;29;20310;-43
2020/12/27 09:57:24;;;;;;;4.00;3.60;;;2.00;97.20;;;;;;4934745;29;20308;-44
2020/12/27 09:59:53;;;;;;;6.90;4.13;;;2.00;97.20;;;;;;4934665;29;20559;-45
2020/12/27 10:02:21;;;;;;;5.67;4.13;;;2.20;96.60;;;;;;4934742;29;20271;-44
2020/12/27 10:04:48;;;;;;;4.90;3.78;;;2.20;96.90;;;;;;4934607;29;20240;-43
2020/12/27 10:07:15;;;;;;;4.40;4.00;;;2.30;96.80;;;;;;4934799;29;20247;-44
2020/12/27 10:09:43;;;;;;;4.20;3.80;;;2.40;96.70;;;;;;4934380;29;20307;-44
2020/12/27 10:12:10;;;;;;;4.33;3.93;;;2.50;96.60;;;;;;4934831;29;20537;-45
2020/12/27 10:14:37;;;;;;;3.90;3.60;;;2.70;96.40;;;;;;4934460;29;20606;-44
2020/12/27 10:17:05;;;;;;;4.07;3.72;;;2.80;96.10;;;;;;4934641;29;20239;-44
2020/12/27 10:19:32;;;;;;;3.30;3.00;;;2.90;96.00;;;;;;4935839;29;20223;-45
2020/12/27 10:22:00;;;;;;;4.23;3.83;;;2.90;95.80;;;;;;4938332;29;20212;-44
2020/12/27 10:24:29;;;;;;;3.50;3.03;;;2.90;95.70;;;;;;4938245;29;20215;-44
2020/12/27 10:26:56;;;;;;;9.70;5.10;;;2.90;95.70;;;;;;4938381;29;20220;-47
2020/12/27 10:29:23;;;;;;;5.23;4.37;;;3.00;95.70;;;;;;4938130;29;20235;-44
2020/12/27 10:31:51;;;;;;;6.73;5.73;;;3.00;95.60;;;;;;4938224;29;20242;-45
2020/12/27 10:34:20;;;;;;;7.60;4.43;;;3.00;95.50;;;;;;4938257;29;20311;-44
2020/12/27 10:36:47;;;;;;;6.57;4.30;;;3.00;95.50;;;;;;4938006;29;20588;-46
2020/12/27 10:39:15;;;;;;;6.60;4.70;;;3.00;95.40;;;;;;4938225;29;20212;-46
2020/12/27 10:41:43;;;;;;;8.90;5.13;;;3.10;95.40;;;;;;4938209;29;20588;-43
2020/12/27 10:44:10;;;;;;;6.38;4.72;;;3.10;95.30;;;;;;4937947;29;20212;-44
2020/12/27 10:46:37;;;;;;;17.60;12.03;;;3.20;95.20;;;;;;4937909;29;20630;-44
2020/12/27 10:49:05;;;;;;;9.97;6.17;;;3.20;95.10;;;;;;4937869;29;20243;-43
2020/12/27 10:51:35;;;;;;;4.57;3.97;;;3.30;95.00;;;;;;4937696;29;20208;-45
2020/12/27 10:54:02;;;;;;;4.90;3.73;;;3.40;94.90;;;;;;4937774;29;20699;-47
2020/12/27 10:56:30;;;;;;;4.23;3.73;;;3.50;94.60;;;;;;4937853;29;20303;-45
2020/12/27 10:58:57;;;;;;;9.83;6.77;;;3.50;94.40;;;;;;4937812;29;20560;-44
2020/12/27 11:01:24;;;;;;;6.00;4.60;;;3.60;94.60;;;;;;4937721;29;20295;-44
2020/12/27 11:03:52;;;;;;;6.78;5.13;;;3.70;94.20;;;;;;4937558;29;20247;-44
2020/12/27 11:06:19;;;;;;;20.23;13.90;;;3.70;94.10;;;;;;4937463;29;20212;-44
2020/12/27 11:08:47;;;;;;;17.15;11.18;;;3.70;93.70;;;;;;4937505;29;20490;-45
2020/12/27 11:11:31;;;;;;;6.50;4.70;;;3.70;93.80;;;;;;4937395;29;20355;-43
2020/12/27 11:13:58;;;;;;;8.20;5.68;;;3.70;93.90;;;;;;4937245;29;20421;-42
2020/12/27 11:16:25;;;;;;;9.77;7.40;;;3.80;93.80;;;;;;4937269;29;20372;-43
2020/12/27 11:18:52;;;;;;;8.55;6.18;;;3.90;93.80;;;;;;4937230;29;20224;-42
2020/12/27 11:21:19;;;;;;;5.38;4.43;;;3.90;93.60;;;;;;4937339;29;20262;-42
2020/12/27 11:23:47;;;;;;;8.35;7.00;;;3.90;94.00;;;;;;4937360;29;20256;-42
2020/12/27 11:26:17;;;;;;;5.40;4.43;;;3.90;93.70;;;;;;4937032;29;20220;-43
2020/12/27 11:28:45;;;;;;;6.43;4.87;;;4.00;93.70;;;;;;4937204;29;20303;-43
2020/12/27 11:31:14;;;;;;;5.10;4.63;;;4.10;93.60;;;;;;4929421;29;20308;-43
2020/12/27 11:33:41;;;;;;;9.77;8.97;;;4.10;93.50;;;;;;4936820;29;20331;-43
2020/12/27 11:36:11;;;;;;;9.53;7.83;;;4.10;93.40;;;;;;4937049;29;20368;-43
2020/12/27 11:38:38;;;;;;;6.30;5.80;;;4.20;93.40;;;;;;4936847;29;20298;-43
2020/12/27 11:41:06;;;;;;;6.17;4.03;;;4.20;93.20;;;;;;4936704;29;20242;-43
2020/12/27 11:43:33;;;;;;;7.83;5.17;;;4.20;93.10;;;;;;4936763;29;20640;-43
2020/12/27 11:46:00;;;;;;;9.50;7.93;;;4.20;92.90;;;;;;4936943;29;20303;-41
2020/12/27 11:48:27;;;;;;;5.27;3.77;;;4.20;92.90;;;;;;4936642;29;20315;-43
2020/12/27 11:50:54;;;;;;;6.23;3.87;;;4.20;92.70;;;;;;4936568;29;20746;-43
2020/12/27 11:53:21;;;;;;;4.83;4.33;;;4.20;92.60;;;;;;4936500;29;20323;-42
2020/12/27 11:55:48;;;;;;;5.47;4.53;;;4.20;92.70;;;;;;4936512;29;20218;-42
2020/12/27 11:58:16;;;;;;;4.93;4.27;;;4.10;92.80;;;;;;4936657;29;20307;-42
2020/12/27 12:00:43;;;;;;;5.23;3.83;;;4.00;92.80;;;;;;4936457;29;20714;-42
2020/12/27 12:03:10;;;;;;;5.33;4.30;;;3.90;93.00;;;;;;4936370;29;20209;-47
2020/12/27 12:05:37;;;;;;;6.33;4.90;;;4.00;93.00;;;;;;4936405;29;20561;-44
2020/12/27 12:08:04;;;;;;;8.90;4.47;;;3.90;92.80;;;;;;4936340;29;20208;-42
2020/12/27 12:10:31;;;;;;;10.47;5.63;;;3.90;92.80;;;;;;4936093;29;20251;-43
2020/12/27 12:12:58;;;;;;;10.10;5.80;;;3.90;92.80;;;;;;4936154;29;20236;-42
2020/12/27 12:15:27;;;;;;;12.73;6.67;;;3.90;92.70;;;;;;4936511;29;20744;-43
2020/12/27 12:17:54;;;;;;;9.60;6.07;;;3.90;92.70;;;;;;4936170;29;20311;-49
2020/12/27 12:23:05;;;;;;;4.28;3.88;;;3.90;93.10;;;;;;4935963;29;20208;-42
2020/12/27 12:25:32;;;;;;;6.20;4.90;;;3.90;92.80;;;;;;4936217;29;20298;-42
2020/12/27 12:27:59;;;;;;;4.67;4.00;;;3.90;92.70;;;;;;4936127;29;20271;-42
2020/12/27 12:30:27;;;;;;;3.90;3.50;;;3.90;92.80;;;;;;4936043;29;20299;-42
2020/12/27 12:32:54;;;;;;;9.17;3.87;;;3.90;93.10;;;;;;4935805;29;20239;-42
2020/12/27 12:35:21;;;;;;;5.07;3.53;;;3.80;93.30;;;;;;4935740;29;20223;-43
2020/12/27 12:37:48;;;;;;;5.13;4.27;;;3.80;93.30;;;;;;4935595;29;20740;-46
2020/12/27 12:40:15;;;;;;;4.43;4.03;;;3.80;93.40;;;;;;4935717;29;20299;-43
2020/12/27 12:42:42;;;;;;;5.10;3.70;;;3.80;93.50;;;;;;4935334;29;20679;-43
2020/12/27 12:45:10;;;;;;;3.70;3.30;;;3.70;93.60;;;;;;4935724;29;20222;-43
2020/12/27 12:47:38;;;;;;;5.00;3.20;;;3.70;93.70;;;;;;4935558;29;20754;-43
2020/12/27 12:50:06;;;;;;;6.50;4.53;;;3.70;93.70;;;;;;4935565;29;20247;-42
2020/12/27 12:52:33;;;;;;;4.85;4.20;;;3.70;93.80;;;;;;4949557;29;20239;-42
2020/12/27 12:55:01;;;;;;;5.47;4.97;;;3.80;93.90;;;;;;4954784;29;20298;-43
2020/12/27 12:57:28;;;;;;;4.00;3.43;;;3.80;93.80;;;;;;4954515;29;20729;-44
2020/12/27 12:59:55;;;;;;;4.23;3.70;;;3.80;93.70;;;;;;4954568;29;20293;-43
2020/12/27 13:02:22;;;;;;;3.55;2.90;;;3.80;93.60;;;;;;4954615;29;20207;-43
2020/12/27 13:04:50;;;;;;;4.45;3.83;;;3.80;93.60;;;;;;4954269;29;20222;-42